Preview of NWS' New Version of Forecast
This preview is not operational and should not be used for support decisions.

Terminal Aerodrome Forecast (TAF)

Issued by National Weather Service (NWS)

                            
000
FTUS42 KMFL 201128
TAFMIA
TAF
KMIA 201128Z 2012/2118 20011KT P6SM VCSH FEW040 SCT050 SCT120
     FM201400 26017KT P6SM VCSH SCT020 BKN025
     FM201500 27017KT P6SM SCT018 BKN025
     FM210000 31009KT P6SM FEW100 SCT240
     FM211200 35008KT P6SM SKC=